Time;durP1;ratioP1;P1;durP2;ratioP2;P2;SDS_P1;SDS_P2;PMS_P1;PMS_P2;Temp;Humidity;BMP_temperature;BMP_pressure;BME280_temperature;BME280_humidity;BME280_pressure;Samples;Min_cycle;Max_cycle;Signal;HPM_P1;HPM_P2
2021/06/28 00:00:32;;;;;;;10.70;9.70;;;;;;;;;;5060621;28;20170;-66
2021/06/28 00:02:58;;;;;;;8.93;8.13;;;;;;;21.11;60.39;101241.47;5061218;28;20660;-67
2021/06/28 00:05:24;;;;;;;12.23;11.03;;;;;;;21.13;60.45;101249.38;5060713;28;20169;-67
2021/06/28 00:07:49;;;;;;;10.60;9.60;;;;;;;21.28;59.90;101240.13;5059819;28;20631;-67
2021/06/28 00:10:20;;;;;;;8.63;7.93;;;;;;;;;;5061290;28;20174;-66
2021/06/28 00:12:46;;;;;;;12.50;11.20;;;;;;;21.49;59.58;101250.16;5060469;28;20177;-67
2021/06/28 00:15:14;;;;;;;8.30;7.60;;;;;;;21.48;59.69;101248.41;5060493;28;20430;-66
2021/06/28 00:17:41;;;;;;;9.70;8.80;;;;;;;21.08;61.12;101251.25;5061010;28;20634;-67
2021/06/28 00:20:08;;;;;;;9.27;8.30;;;;;;;21.40;60.09;101247.75;5060566;28;20797;-66
2021/06/28 00:22:33;;;;;;;11.17;10.17;;;;;;;21.32;60.36;101253.25;5060417;28;20420;-67
2021/06/28 00:24:59;;;;;;;10.07;9.17;;;;;;;21.41;60.28;101256.59;5060301;28;20480;-66
2021/06/28 00:27:25;;;;;;;9.57;8.70;;;;;;;21.23;60.70;101252.63;5060371;28;20289;-66
2021/06/28 00:29:51;;;;;;;8.70;8.00;;;;;;;20.89;61.99;101254.41;5060783;28;20227;-66
2021/06/28 00:32:16;;;;;;;9.10;8.40;;;;;;;21.05;61.91;101260.16;5060109;28;20424;-66
2021/06/28 00:34:42;;;;;;;9.70;8.80;;;;;;;;;;5060484;28;20437;-66
2021/06/28 00:37:08;;;;;;;7.80;7.20;;;;;;;21.12;61.41;101259.13;5060557;28;20166;-66
2021/06/28 00:39:33;;;;;;;10.80;9.90;;;;;;;21.05;61.82;101259.31;5060379;28;20261;-66
2021/06/28 00:41:58;;;;;;;9.27;8.37;;;;;;;21.07;62.05;101263.66;5059970;28;20181;-66
2021/06/28 00:44:23;;;;;;;9.80;8.90;;;;;;;20.88;62.76;101252.66;5060672;28;20165;-66
2021/06/28 00:46:49;;;;;;;10.40;9.50;;;;;;;21.11;61.48;101260.03;5059948;28;20170;-64
2021/06/28 00:49:14;;;;;;;11.97;10.77;;;;;;;21.39;60.03;101261.91;5060060;28;20173;-66
2021/06/28 00:51:40;;;;;;;8.60;7.90;;;;;;;21.25;60.16;101256.13;5060562;28;20165;-66
2021/06/28 00:54:06;;;;;;;9.70;8.90;;;;;;;21.02;60.70;101260.25;5059864;28;20174;-66
2021/06/28 00:56:31;;;;;;;8.50;7.80;;;;;;;20.95;60.71;101263.97;5059854;28;20166;-66
2021/06/28 00:58:58;;;;;;;11.00;9.90;;;;;;;21.03;60.60;101257.56;5060897;28;20676;-67
2021/06/28 01:01:23;;;;;;;14.33;9.17;;;;;;;20.99;61.00;101265.66;5059775;28;20174;-67
2021/06/28 01:03:49;;;;;;;19.53;17.57;;;;;;;20.85;61.39;101258.91;5058986;28;20447;-66
2021/06/28 01:06:15;;;;;;;11.33;10.33;;;;;;;20.86;61.48;101259.75;5060020;28;20170;-66
2021/06/28 01:08:40;;;;;;;8.77;7.87;;;;;;;20.82;61.57;101258.09;5059866;28;20201;-67
2021/06/28 01:11:06;;;;;;;10.60;9.60;;;;;;;20.86;61.71;101255.34;5058771;28;20464;-65
2021/06/28 01:13:33;;;;;;;10.53;9.43;;;;;;;20.45;62.95;101261.63;5059809;28;20185;-65
2021/06/28 01:15:59;;;;;;;10.93;9.97;;;;;;;20.67;62.24;101261.97;5059652;28;20421;-65
2021/06/28 01:18:24;;;;;;;11.90;10.90;;;;;;;20.53;62.85;101268.47;5059444;28;20427;-66
2021/06/28 01:20:50;;;;;;;13.67;12.37;;;;;;;20.41;63.56;101274.03;5059824;28;20396;-66
2021/06/28 01:23:26;;;;;;;15.50;14.00;;;;;;;20.47;63.36;101263.31;5058745;28;20420;-66
2021/06/28 01:25:55;;;;;;;10.03;9.23;;;;;;;20.74;62.32;101255.63;5059518;28;20169;-66
2021/06/28 01:28:21;;;;;;;17.40;14.17;;;;;;;20.51;63.31;101253.50;5059349;28;20449;-66
2021/06/28 01:30:48;;;;;;;10.40;9.40;;;;;;;20.61;62.98;101246.22;5059240;28;20427;-66
2021/06/28 01:33:13;;;;;;;11.00;10.00;;;;;;;20.10;64.58;101252.69;5058755;28;20518;-66
2021/06/28 01:35:40;;;;;;;10.00;9.10;;;;;;;19.95;65.62;101257.41;5059171;28;20812;-66
2021/06/28 01:38:05;;;;;;;9.47;8.67;;;;;;;20.27;64.60;101254.94;5059137;28;20169;-66
2021/06/28 01:40:30;;;;;;;14.80;13.40;;;;;;;20.61;63.60;101249.75;5059611;28;20786;-65
2021/06/28 01:42:55;;;;;;;12.00;10.73;;;;;;;20.54;63.59;101253.47;5058906;28;20260;-65
2021/06/28 01:45:22;;;;;;;12.07;11.00;;;;;;;20.58;63.50;101248.94;5059133;28;20183;-66
2021/06/28 01:47:53;;;;;;;12.23;11.30;;;;;;;20.48;63.61;101262.41;5059486;28;20198;-66
2021/06/28 01:50:21;;;;;;;13.70;12.30;;;;;;;20.61;63.58;101255.03;5058982;28;20444;-66
2021/06/28 01:52:46;;;;;;;11.27;10.20;;;;;;;20.38;64.32;101252.03;5058649;28;20576;-67
2021/06/28 01:55:13;;;;;;;11.17;10.00;;;;;;;20.76;63.29;101253.84;5058837;28;20418;-67
2021/06/28 01:57:46;;;;;;;10.23;9.23;;;;;;;20.28;64.95;101267.28;5058670;28;20597;-67
2021/06/28 02:00:15;;;;;;;11.67;10.40;;;;;;;19.51;68.13;101260.03;5058773;28;20411;-67
2021/06/28 02:02:41;;;;;;;11.00;10.00;;;;;;;19.07;69.75;101252.91;5052532;28;20433;-67
2021/06/28 02:05:07;;;;;;;11.97;10.87;;;;;;;19.31;69.04;101248.97;5051082;28;20402;-66
2021/06/28 02:07:33;;;;;;;11.30;10.30;;;;;;;18.58;72.09;101250.13;5058704;28;20228;-66
2021/06/28 02:09:59;;;;;;;10.47;9.57;;;;;;;19.09;70.37;101244.06;5038185;28;20467;-66
2021/06/28 02:12:25;;;;;;;12.20;11.00;;;;;;;19.63;68.32;101245.69;5038185;28;20733;-66
2021/06/28 02:14:51;;;;;;;11.37;10.47;;;;;;;19.48;68.32;101243.31;5038620;28;20162;-66
2021/06/28 02:17:19;;;;;;;11.03;10.03;;;;;;;18.71;71.85;101239.38;5037971;28;20849;-66
2021/06/28 02:19:46;;;;;;;11.47;10.37;;;;;;;18.98;71.06;101235.44;5038136;28;20232;-66
2021/06/28 02:22:12;;;;;;;11.67;10.67;;;;;;;18.87;71.50;101229.44;5058016;28;20433;-65
2021/06/28 02:24:37;;;;;;;12.47;11.17;;;;;;;18.75;72.03;101223.44;5057231;28;20455;-66
2021/06/28 02:27:02;;;;;;;12.43;11.33;;;;;;;18.60;72.51;101223.72;5057150;28;20445;-66
2021/06/28 02:29:28;;;;;;;12.43;11.23;;;;;;;18.82;72.05;101225.09;5058470;28;20169;-66
2021/06/28 02:31:53;;;;;;;12.03;11.00;;;;;;;19.24;70.40;101226.16;5057884;28;20178;-66
2021/06/28 02:34:18;;;;;;;12.73;11.37;;;;;;;19.45;69.17;101223.09;5057247;28;20193;-65
2021/06/28 02:36:44;;;;;;;11.70;10.70;;;;;;;19.43;69.52;101222.28;5058492;28;20193;-65
2021/06/28 02:39:09;;;;;;;12.20;11.10;;;;;;;18.92;71.29;101225.84;5058160;28;20204;-65
2021/06/28 02:41:35;;;;;;;12.40;11.30;;;;;;;19.50;69.14;101215.09;5057933;28;20486;-66
2021/06/28 02:44:01;;;;;;;12.73;11.53;;;;;;;19.63;68.61;101224.53;5058341;28;20169;-67
2021/06/28 02:46:26;;;;;;;12.27;11.27;;;;;;;19.84;68.24;101215.28;5057970;28;20176;-66
2021/06/28 02:48:52;;;;;;;11.73;10.83;;;;;;;19.67;68.52;101220.91;5057861;28;20344;-66
2021/06/28 02:51:17;;;;;;;12.70;11.57;;;;;;;19.11;70.20;101218.47;5058445;28;20166;-66
2021/06/28 02:53:43;;;;;;;12.33;11.23;;;;;;;19.65;68.73;101217.41;5057800;28;20260;-66
2021/06/28 02:56:12;;;;;;;12.60;11.50;;;;;;;19.71;68.15;101213.75;5057949;28;20542;-66
2021/06/28 02:58:58;;;;;;;12.33;11.23;;;;;;;19.31;69.33;101220.72;5058202;28;20157;-67
2021/06/28 03:01:26;;;;;;;11.97;10.87;;;;;;;19.56;68.58;101211.44;5057465;28;20428;-65
2021/06/28 03:03:52;;;;;;;12.40;11.17;;;;;;;19.84;67.79;101215.28;5057925;28;20816;-66
2021/06/28 03:06:18;;;;;;;12.97;11.67;;;;;;;19.52;68.74;101208.88;5057893;28;20469;-67
2021/06/28 03:08:45;;;;;;;12.00;11.00;;;;;;;19.50;69.12;101215.94;5057742;28;20463;-66
2021/06/28 03:11:12;;;;;;;12.30;11.30;;;;;;;19.00;70.78;101218.66;5058157;28;20737;-67
2021/06/28 03:13:38;;;;;;;13.00;11.90;;;;;;;18.71;71.92;101208.53;5057580;28;20726;-67
2021/06/28 03:16:04;;;;;;;42.13;35.40;;;;;;;19.14;70.34;101218.41;5057588;28;20387;-67
2021/06/28 03:18:29;;;;;;;16.20;14.50;;;;;;;19.48;69.52;101217.78;5058328;28;20165;-66
2021/06/28 03:20:55;;;;;;;19.50;17.60;;;;;;;19.66;68.15;101223.56;5057677;28;20444;-66
2021/06/28 03:23:20;;;;;;;13.17;12.00;;;;;;;18.91;71.10;101226.72;5057360;28;20181;-67
2021/06/28 03:25:46;;;;;;;13.80;12.50;;;;;;;19.08;70.32;101228.19;5057944;28;20173;-66
2021/06/28 03:28:11;;;;;;;13.40;12.20;;;;;;;19.17;69.88;101226.28;5059657;28;20208;-66
2021/06/28 03:30:37;;;;;;;13.10;11.90;;;;;;;19.51;69.45;101222.09;5060815;28;20496;-66
2021/06/28 03:33:02;;;;;;;12.80;11.70;;;;;;;20.13;66.99;101220.84;5061706;28;20570;-66
2021/06/28 03:35:28;;;;;;;12.33;11.13;;;;;;;20.38;65.68;101218.50;5061472;28;20438;-67
2021/06/28 03:37:53;;;;;;;13.03;11.93;;;;;;;20.20;66.47;101227.72;5061485;28;20190;-66
2021/06/28 03:40:19;;;;;;;13.13;12.03;;;;;;;20.61;64.71;101230.34;5061752;28;20215;-66
2021/06/28 03:42:44;;;;;;;12.53;11.20;;;;;;;19.95;66.62;101235.38;5061169;28;20184;-66
2021/06/28 03:45:11;;;;;;;12.77;11.47;;;;;;;19.92;67.39;101232.78;5061189;28;20188;-66
2021/06/28 03:47:37;;;;;;;11.23;10.23;;;;;;;20.42;65.42;101224.59;5061545;28;20630;-65
2021/06/28 03:50:04;;;;;;;11.57;10.57;;;;;;;20.31;65.63;101232.78;5061125;28;20513;-67
2021/06/28 03:52:30;;;;;;;11.33;10.40;;;;;;;21.06;63.83;101222.16;5060899;28;20170;-67
2021/06/28 03:54:55;;;;;;;11.40;10.40;;;;;;;21.01;63.11;101224.94;5061651;28;20535;-66
2021/06/28 03:57:20;;;;;;;11.93;10.83;;;;;;;21.47;61.70;101230.78;5060891;28;20173;-68
2021/06/28 03:59:46;;;;;;;11.37;9.90;;;;;;;22.23;59.78;101215.28;5060971;28;20181;-67
2021/06/28 04:02:11;;;;;;;10.23;9.43;;;;;;;22.08;59.42;101221.94;5061210;28;20174;-67
2021/06/28 04:04:36;;;;;;;11.20;10.03;;;;;;;22.82;57.33;101214.25;5060953;28;20169;-66
2021/06/28 04:07:02;;;;;;;9.80;9.00;;;;;;;23.46;55.17;101218.28;5060712;28;20185;-66
2021/06/28 04:09:27;;;;;;;10.10;9.13;;;;;;;25.03;50.94;101203.19;5061000;28;20478;-66
2021/06/28 04:11:52;;;;;;;9.60;8.80;;;;;;;23.75;53.95;101205.66;5060395;28;20180;-67
2021/06/28 04:14:18;;;;;;;9.90;9.00;;;;;;;23.99;53.85;101205.66;5060569;28;20231;-66
2021/06/28 04:16:43;;;;;;;9.60;8.70;;;;;;;24.86;51.07;101206.56;5061010;28;20174;-67
2021/06/28 04:19:08;;;;;;;9.37;8.57;;;;;;;23.54;54.38;101207.34;5060697;28;20220;-67
2021/06/28 04:21:34;;;;;;;9.47;8.77;;;;;;;25.64;48.84;101204.06;5060696;28;20412;-67
2021/06/28 04:24:03;;;;;;;10.40;9.50;;;;;;;26.25;47.23;101198.56;5060342;28;20470;-67
2021/06/28 04:26:29;;;;;;;9.27;8.57;;;;;;;25.31;48.81;101196.59;5060626;28;20420;-67
2021/06/28 04:28:54;;;;;;;9.93;9.13;;;;;;;25.16;49.99;101195.50;5059748;28;20708;-66
2021/06/28 04:31:20;;;;;;;9.30;8.40;;;;;;;26.02;47.45;101196.06;5060338;28;20228;-67
2021/06/28 04:33:45;;;;;;;9.20;8.40;;;;;;;25.01;49.79;101186.38;5053435;28;20217;-66
2021/06/28 04:36:10;;;;;;;10.43;7.60;;;;;;;26.41;46.33;101190.66;5040615;28;20174;-66
2021/06/28 04:38:36;;;;;;;8.80;8.10;;;;;;;26.28;46.15;101193.09;5046699;28;20193;-66
2021/06/28 04:41:01;;;;;;;9.20;8.40;;;;;;;26.05;46.30;101189.72;5058709;28;20173;-67
2021/06/28 04:43:26;;;;;;;8.97;8.17;;;;;;;25.27;48.61;101192.34;5060131;28;20220;-67
2021/06/28 04:45:52;;;;;;;9.40;8.60;;;;;;;26.29;46.26;101186.78;5059851;28;20185;-67
2021/06/28 04:48:17;;;;;;;8.77;8.07;;;;;;;26.28;46.07;101187.75;5059787;28;20206;-67
2021/06/28 04:50:42;;;;;;;9.23;8.43;;;;;;;24.55;50.76;101194.50;5053173;28;20170;-67
2021/06/28 04:53:08;;;;;;;9.77;8.87;;;;;;;25.62;48.08;101183.72;5039623;28;20249;-66
2021/06/28 04:55:33;;;;;;;9.13;8.23;;;;;;;24.13;52.49;101181.16;5039865;28;20169;-66
2021/06/28 04:57:58;;;;;;;9.77;8.80;;;;;;;24.97;49.49;101181.25;5040083;28;20181;-66
2021/06/28 05:00:25;;;;;;;9.87;9.03;;;;;;;24.98;49.66;101183.84;5039660;28;20186;-67
2021/06/28 05:02:50;;;;;;;9.43;8.53;;;;;;;24.70;51.51;101185.03;5038879;28;20171;-67
2021/06/28 05:05:16;;;;;;;9.80;9.00;;;;;;;24.97;49.79;101186.59;5040296;28;20421;-67
2021/06/28 05:07:44;;;;;;;9.43;8.53;;;;;;;24.88;49.62;101191.38;5039515;28;20608;-67
2021/06/28 05:10:11;;;;;;;8.97;8.07;;;;;;;25.45;48.92;101185.38;5039617;28;20178;-67
2021/06/28 05:12:37;;;;;;;9.20;8.50;;;;;;;24.19;51.97;101195.09;5039961;28;20413;-67
2021/06/28 05:15:04;;;;;;;9.97;8.93;;;;;;;25.21;49.55;101188.16;5039636;28;20834;-67
2021/06/28 05:17:30;;;;;;;8.73;8.03;;;;;;;26.93;44.94;101184.47;5039607;28;20174;-67
2021/06/28 05:19:55;;;;;;;9.83;9.03;;;;;;;23.15;54.30;101200.75;5039890;28;20502;-67
2021/06/28 05:22:20;;;;;;;9.03;8.33;;;;;;;25.30;49.36;101188.69;5039612;28;20170;-66
2021/06/28 05:24:46;;;;;;;9.40;8.60;;;;;;;25.87;48.00;101186.97;5039492;28;20238;-67
2021/06/28 05:27:11;;;;;;;9.77;7.47;;;;;;;26.68;45.85;101185.72;5039855;28;20198;-67
2021/06/28 05:29:36;;;;;;;9.00;8.20;;;;;;;27.85;43.04;101174.16;5039281;28;20178;-67
2021/06/28 05:32:02;;;;;;;9.30;8.40;;;;;;;27.46;42.99;101182.63;5039232;28;20174;-66
2021/06/28 05:34:28;;;;;;;9.13;8.33;;;;;;;26.10;46.15;101189.47;5039774;28;20205;-67
2021/06/28 05:36:53;;;;;;;8.73;8.03;;;;;;;25.37;48.99;101187.47;5039140;28;20429;-67
2021/06/28 05:39:18;;;;;;;9.37;8.57;;;;;;;23.72;52.96;101195.16;5039077;28;20186;-67
2021/06/28 05:41:44;;;;;;;9.73;8.73;;;;;;;25.53;48.16;101185.88;5039368;28;20529;-67
2021/06/28 05:44:09;;;;;;;10.13;9.00;;;;;;;25.75;47.57;101182.19;5038932;28;20177;-67
2021/06/28 05:46:35;;;;;;;9.20;8.40;;;;;;;24.51;50.56;101187.56;5038861;28;20186;-67
2021/06/28 05:49:00;;;;;;;9.70;8.90;;;;;;;25.81;47.26;101184.56;5039239;28;20481;-66
2021/06/28 05:51:27;;;;;;;9.77;8.70;;;;;;;26.43;45.89;101178.94;5038531;28;20446;-66
2021/06/28 05:53:52;;;;;;;8.70;7.90;;;;;;;28.70;40.22;101176.53;5038073;28;20174;-66
2021/06/28 05:56:17;;;;;;;9.27;8.37;;;;;;;28.20;41.63;101176.69;5039253;28;20413;-67
2021/06/28 05:58:42;;;;;;;9.27;8.47;;;;;;;25.98;46.23;101190.91;5038749;28;20186;-67
2021/06/28 06:01:09;;;;;;;8.50;7.90;;;;;;;28.02;41.43;101183.09;5038765;28;20174;-66
2021/06/28 06:03:34;;;;;;;8.40;7.60;;;;;;;27.60;42.89;101181.84;5038956;28;20198;-68
2021/06/28 06:06:00;;;;;;;8.30;7.60;;;;;;;29.45;38.82;101170.19;5038516;28;20714;-69
2021/06/28 06:08:25;;;;;;;8.50;7.63;;;;;;;31.21;35.35;101172.00;5038479;28;20202;-67
2021/06/28 06:10:52;;;;;;;8.97;8.13;;;;;;;28.23;40.49;101178.34;5038876;28;20185;-66
2021/06/28 06:13:18;;;;;;;17.13;7.80;;;;;;;30.03;36.75;101170.97;5038309;28;20273;-67
2021/06/28 06:15:43;;;;;;;9.17;7.80;;;;;;;29.14;39.13;101175.59;5038582;28;20663;-68
2021/06/28 06:18:09;;;;;;;8.43;7.53;;;;;;;27.29;42.47;101188.84;5039122;28;20245;-69
2021/06/28 06:20:34;;;;;;;8.63;7.67;;;;;;;26.79;44.54;101183.41;5038234;28;20221;-68
2021/06/28 06:22:59;;;;;;;8.10;7.30;;;;;;;29.37;38.81;101176.88;5038248;28;20220;-67
2021/06/28 06:25:25;;;;;;;9.07;7.10;;;;;;;28.93;39.17;101180.50;5038619;28;20293;-67
2021/06/28 06:27:50;;;;;;;10.27;6.80;;;;;;;32.54;33.01;101173.06;5038018;28;20197;-67
2021/06/28 06:30:16;;;;;;;7.43;6.73;;;;;;;32.08;32.96;101180.97;5038185;28;20198;-67
2021/06/28 06:32:42;;;;;;;9.67;6.67;;;;;;;31.95;33.02;101187.38;5038131;28;20864;-67
2021/06/28 06:35:08;;;;;;;7.10;6.40;;;;;;;31.47;33.35;101183.56;5038092;28;20205;-67
2021/06/28 06:37:33;;;;;;;9.17;6.73;;;;;;;31.79;32.37;101184.97;5038077;28;20185;-67
2021/06/28 06:39:58;;;;;;;8.27;6.63;;;;;;;33.29;30.16;101174.50;5038536;28;20654;-67
2021/06/28 06:42:24;;;;;;;7.30;5.93;;;;;;;33.74;29.49;101179.00;5037817;28;20174;-68
2021/06/28 06:44:49;;;;;;;6.60;6.00;;;;;;;29.92;35.02;101184.22;5037844;28;20184;-68
2021/06/28 06:47:15;;;;;;;9.33;6.80;;;;;;;32.92;31.27;101174.66;5038444;28;20206;-67
2021/06/28 06:49:42;;;;;;;6.50;6.00;;;;;;;34.51;28.71;101180.75;5037583;28;20184;-68
2021/06/28 06:52:07;;;;;;;6.70;6.00;;;;;;;33.17;30.69;101187.09;5037367;28;20403;-66
2021/06/28 06:54:33;;;;;;;8.40;5.77;;;;;;;33.06;30.19;101184.41;5053331;28;20522;-68
2021/06/28 06:56:58;;;;;;;10.77;5.70;;;;;;;34.08;29.03;101182.53;5057104;28;20310;-66
2021/06/28 06:59:23;;;;;;;7.03;6.33;;;;;;;30.41;34.51;101194.44;5057589;28;20188;-66
2021/06/28 07:01:48;;;;;;;7.93;6.90;;;;;;;33.22;29.69;101182.19;5057147;28;20193;-67
2021/06/28 07:04:14;;;;;;;6.50;5.90;;;;;;;28.47;37.58;101196.59;5043480;28;20186;-67
2021/06/28 07:06:41;;;;;;;9.13;5.90;;;;;;;30.70;33.63;101186.25;5057617;28;20169;-68
2021/06/28 07:09:06;;;;;;;6.80;5.40;;;;;;;32.41;31.10;101176.72;5052016;28;20510;-67
2021/06/28 07:11:32;;;;;;;6.10;5.60;;;;;;;33.08;30.03;101177.91;5057211;28;20451;-66
2021/06/28 07:13:59;;;;;;;6.13;5.70;;;;;;;34.29;28.09;101179.00;5057302;28;20204;-66
2021/06/28 07:16:30;;;;;;;7.10;5.97;;;;;;;34.78;26.91;101184.78;5057809;28;20268;-66
2021/06/28 07:18:56;;;;;;;5.80;5.40;;;;;;;33.65;28.62;101185.16;5057408;28;20663;-65
2021/06/28 07:21:21;;;;;;;6.20;5.33;;;;;;;34.16;27.29;101181.84;5049533;28;20436;-65
2021/06/28 07:23:48;;;;;;;7.63;5.83;;;;;;;34.14;28.09;101182.97;5037226;28;20708;-65
2021/06/28 07:26:13;;;;;;;8.20;5.90;;;;;;;32.68;30.25;101185.53;5037429;28;20178;-65
2021/06/28 07:28:39;;;;;;;6.20;5.60;;;;;;;33.84;27.59;101192.66;5037360;28;20531;-65
2021/06/28 07:31:04;;;;;;;6.30;5.73;;;;;;;30.07;34.20;101204.75;5037180;28;20209;-66
2021/06/28 07:33:31;;;;;;;6.10;5.50;;;;;;;32.87;30.26;101195.78;5037337;28;20228;-64
2021/06/28 07:35:58;;;;;;;7.13;6.00;;;;;;;34.05;27.82;101192.72;5037166;28;20475;-65
2021/06/28 07:38:24;;;;;;;6.53;5.80;;;;;;;32.71;30.13;101193.41;5037556;28;20863;-65
2021/06/28 07:40:50;;;;;;;7.13;5.53;;;;;;;33.19;29.13;101195.97;5037493;28;20413;-65
2021/06/28 07:43:16;;;;;;;6.67;6.07;;;;;;;32.19;31.02;101200.91;5037631;28;20423;-65
2021/06/28 07:45:42;;;;;;;6.70;6.10;;;;;;;30.71;33.40;101201.44;5036642;28;20174;-65
2021/06/28 07:48:07;;;;;;;8.70;5.80;;;;;;;30.61;33.71;101200.31;5037282;28;20467;-65
2021/06/28 07:50:32;;;;;;;7.17;6.47;;;;;;;31.13;33.48;101202.13;5038092;28;20237;-65
2021/06/28 07:52:58;;;;;;;6.70;6.10;;;;;;;31.73;31.96;101188.94;5037276;28;20186;-65
2021/06/28 07:55:23;;;;;;;7.10;6.30;;;;;;;31.07;32.79;101195.38;5037077;28;20413;-66
2021/06/28 07:57:49;;;;;;;6.20;5.60;;;;;;;31.88;31.04;101189.66;5037935;28;20483;-65
2021/06/28 08:00:16;;;;;;;6.67;6.03;;;;;;;31.81;31.44;101186.56;5037367;28;20336;-65
2021/06/28 08:02:42;;;;;;;6.40;5.90;;;;;;;31.91;31.59;101187.59;5037106;28;20264;-65
2021/06/28 08:05:08;;;;;;;8.30;6.07;;;;;;;33.78;28.33;101177.78;5037522;28;20424;-65
2021/06/28 08:07:34;;;;;;;6.60;6.10;;;;;;;32.97;29.83;101182.44;5036939;28;20482;-66
2021/06/28 08:10:00;;;;;;;7.50;6.10;;;;;;;33.31;29.04;101177.91;5037184;28;20424;-66
2021/06/28 08:12:25;;;;;;;6.33;5.50;;;;;;;34.62;26.25;101165.44;5037472;28;20162;-66
2021/06/28 08:14:51;;;;;;;6.20;5.60;;;;;;;31.71;31.38;101172.88;5039856;28;20452;-66
2021/06/28 08:17:16;;;;;;;6.10;5.67;;;;;;;34.75;26.84;101168.81;5040761;28;20193;-66
2021/06/28 08:19:44;;;;;;;5.63;5.00;;;;;;;33.47;27.80;101171.28;5040911;28;20410;-65
2021/06/28 08:22:09;;;;;;;5.47;4.97;;;;;;;32.77;29.03;101167.78;5040159;28;20174;-65
2021/06/28 08:24:35;;;;;;;6.80;5.50;;;;;;;31.60;30.46;101167.44;5044665;28;20468;-66
2021/06/28 08:27:01;;;;;;;6.33;5.47;;;;;;;35.06;25.67;101158.88;5050814;28;20197;-65
2021/06/28 08:29:26;;;;;;;5.60;5.00;;;;;;;35.69;25.18;101157.00;5048588;28;20551;-66
2021/06/28 08:31:52;;;;;;;5.83;5.27;;;;;;;36.92;22.82;101134.69;5058470;28;20233;-66
2021/06/28 08:34:17;;;;;;;5.17;4.70;;;;;;;36.75;23.20;101140.88;5054693;28;20247;-66
2021/06/28 08:36:45;;;;;;;6.00;5.40;;;;;;;33.32;27.54;101151.78;5043062;28;20440;-66
2021/06/28 08:39:10;;;;;;;5.60;5.20;;;;;;;34.51;26.28;101150.97;5070390;28;20204;-66
2021/06/28 08:41:37;;;;;;;5.23;4.83;;;;;;;34.16;25.75;101149.38;5053607;28;20733;-67
2021/06/28 08:44:03;;;;;;;5.70;5.13;;;;;;;34.45;26.70;101154.22;5048208;28;20226;-66
2021/06/28 08:46:28;;;;;;;6.03;5.07;;;;;;;34.15;26.57;101147.66;5057102;28;20443;-65
2021/06/28 08:48:54;;;;;;;5.90;5.40;;;;;;;35.83;24.13;101147.63;5043373;28;20220;-63
2021/06/28 08:51:20;;;;;;;5.83;5.20;;;;;;;33.83;26.97;101153.94;5041509;28;20208;-64
2021/06/28 08:53:52;;;;;;;6.13;5.30;;;;;;;33.60;27.00;101141.41;5045652;28;20431;-65
2021/06/28 08:56:18;;;;;;;7.50;5.37;;;;;;;34.69;26.65;101139.53;5050183;28;20174;-64
2021/06/28 08:58:43;;;;;;;5.47;4.97;;;;;;;36.69;24.10;101133.31;5039377;28;21015;-65
2021/06/28 09:01:10;;;;;;;5.30;4.90;;;;;;;34.76;26.11;101135.31;5041267;28;20461;-65
2021/06/28 09:03:35;;;;;;;10.33;5.50;;;;;;;31.54;31.59;101146.28;5046182;28;20456;-65
2021/06/28 09:06:14;;;;;;;6.33;5.10;;;;;;;34.78;27.01;101136.03;5050907;28;20431;-65
2021/06/28 09:08:59;;;;;;;6.40;5.90;;;;;;;34.07;27.38;101133.94;5042188;28;20546;-65
2021/06/28 09:11:25;;;;;;;5.53;5.13;;;;;;;36.15;25.13;101128.34;5040220;28;20444;-66
2021/06/28 09:13:53;;;;;;;6.20;5.00;;;;;;;36.02;23.91;101130.50;5045920;28;20459;-65
2021/06/28 09:16:20;;;;;;;8.20;5.53;;;;;;;36.33;24.04;101133.09;5042818;28;20547;-65
2021/06/28 09:18:57;;;;;;;6.83;5.47;;;;;;;36.50;23.75;101128.78;5040326;28;20478;-67
2021/06/28 09:21:37;;;;;;;5.90;5.40;;;;;;;36.81;23.61;101129.44;5042466;28;20530;-65
2021/06/28 09:24:03;;;;;;;5.93;5.33;;;;;;;35.14;25.13;101138.38;5043033;28;20700;-65
2021/06/28 09:26:33;;;;;;;6.60;5.73;;;;;;;35.86;25.12;101136.50;5044137;28;20444;-65
2021/06/28 09:29:01;;;;;;;5.23;4.83;;;;;;;37.44;22.32;101132.50;5044234;28;20213;-65
2021/06/28 09:31:31;;;;;;;6.80;4.87;;;;;;;35.30;24.97;101143.28;5040743;28;20458;-67
2021/06/28 09:34:08;;;;;;;5.43;5.03;;;;;;;35.31;25.07;101147.72;5042243;28;20850;-66
2021/06/28 09:36:50;;;;;;;6.20;5.70;;;;;;;34.66;25.87;101134.41;5040705;28;20793;-66
2021/06/28 09:39:17;;;;;;;6.20;5.60;;;;;;;36.46;23.92;101128.22;5046736;28;20531;-66
2021/06/28 09:41:42;;;;;;;6.53;5.13;;;;;;;35.65;24.73;101134.72;5038425;28;20534;-65
2021/06/28 09:44:09;;;;;;;5.50;4.90;;;;;;;34.63;25.93;101140.94;5042997;28;20932;-65
2021/06/28 09:46:35;;;;;;;5.63;5.07;;;;;;;33.69;26.60;101132.53;5050076;28;20181;-65
2021/06/28 09:49:01;;;;;;;5.77;5.27;;;;;;;33.41;27.72;101132.13;5048371;28;20467;-65
2021/06/28 09:51:33;;;;;;;8.03;5.63;;;;;;;34.75;25.59;101131.75;5041366;28;20433;-65
2021/06/28 09:54:08;;;;;;;6.20;5.60;;;;;;;35.11;25.23;101125.94;5043642;28;20268;-65
2021/06/28 09:56:39;;;;;;;7.70;5.60;;;;;;;32.60;28.56;101137.53;5044311;28;20482;-64
2021/06/28 09:59:37;;;;;;;5.63;5.03;;;;;;;34.88;25.54;101131.56;5044458;28;20432;-66
2021/06/28 10:02:21;;;;;;;5.67;5.17;;;;;;;34.04;26.70;101131.47;5044246;28;20742;-66
2021/06/28 10:07:24;;;;;;;5.30;4.90;;;;;;;33.33;27.02;101131.88;5038251;28;20420;-67
2021/06/28 10:10:08;;;;;;;6.47;5.30;;;;;;;33.88;26.11;101127.38;5038530;28;20429;-66
2021/06/28 10:12:35;;;;;;;7.07;5.30;;;;;;;32.05;29.51;101123.69;5037981;28;20447;-65
2021/06/28 10:15:00;;;;;;;5.10;4.70;;;;;;;34.98;25.73;101119.91;5037631;28;20477;-65
2021/06/28 10:17:26;;;;;;;5.43;5.03;;;;;;;34.14;26.75;101123.44;5054220;28;20463;-65
2021/06/28 10:19:52;;;;;;;5.90;5.37;;;;;;;33.47;27.98;101123.50;5039703;28;20186;-65
2021/06/28 10:22:17;;;;;;;7.13;5.60;;;;;;;33.82;27.02;101124.31;5049175;28;20466;-65
2021/06/28 10:24:43;;;;;;;5.73;5.33;;;;;;;34.15;26.37;101117.91;5044106;28;20268;-64
2021/06/28 10:27:08;;;;;;;5.83;5.33;;;;;;;33.95;27.08;101118.72;5037777;28;20646;-66
2021/06/28 10:29:34;;;;;;;6.33;5.70;;;;;;;34.17;27.35;101124.06;5036421;28;20297;-65
2021/06/28 10:32:08;;;;;;;6.57;5.53;;;;;;;32.96;27.77;101105.06;5036512;28;20216;-64
2021/06/28 10:34:34;;;;;;;5.60;5.20;;;;;;;33.39;27.18;101116.00;5036660;28;20440;-64
2021/06/28 10:37:02;;;;;;;5.63;5.23;;;;;;;33.92;26.72;101109.03;5043730;28;20460;-64
2021/06/28 10:39:32;;;;;;;5.30;4.87;;;;;;;32.51;27.76;101122.03;5054301;28;20193;-66
2021/06/28 10:42:00;;;;;;;7.53;5.10;;;;;;;31.36;29.47;101116.16;5051765;28;20440;-65
2021/06/28 10:44:45;;;;;;;5.57;5.07;;;;;;;33.11;27.51;101116.50;5040976;28;20509;-64
2021/06/28 10:47:10;;;;;;;5.50;5.10;;;;;;;33.90;26.11;101119.13;5050068;28;20526;-65
2021/06/28 10:49:52;;;;;;;5.17;4.70;;;;;;;33.86;25.70;101125.78;5037693;28;20441;-65
2021/06/28 10:52:38;;;;;;;5.00;4.53;;;;;;;34.25;25.19;101113.44;5039272;28;20205;-65
2021/06/28 10:55:29;;;;;;;5.63;5.23;;;;;;;33.78;26.60;101121.00;5048360;28;20437;-65
2021/06/28 10:57:55;;;;;;;4.80;4.50;;;;;;;33.30;25.96;101114.06;5036512;28;20459;-66
2021/06/28 11:00:49;;;;;;;5.43;5.03;;;;;;;33.84;25.62;101120.50;5037849;28;20503;-66
2021/06/28 11:03:23;;;;;;;5.33;4.93;;;;;;;32.69;25.03;101111.63;5039220;28;20186;-67
2021/06/28 11:06:13;;;;;;;5.20;4.53;;;;;;;31.03;27.82;101118.47;5046353;28;20420;-68
2021/06/28 11:08:57;;;;;;;5.53;4.67;;;;;;;31.88;27.90;101109.66;5056471;28;20558;-67
2021/06/28 11:11:51;;;;;;;5.03;4.63;;;;;;;31.40;28.66;101114.94;5037666;28;20434;-67
2021/06/28 11:14:19;;;;;;;6.30;5.20;;;;;;;31.35;29.19;101114.41;5038508;28;20444;-67
2021/06/28 11:17:09;;;;;;;5.00;4.60;;;;;;;32.20;25.13;101103.66;5037478;28;20448;-67
2021/06/28 11:22:27;;;;;;;5.37;4.80;;;;;;;33.11;25.16;101101.16;5036978;28;20448;-67
2021/06/28 11:25:00;;;;;;;4.97;4.53;;;;;;;32.92;24.13;101099.03;5039322;28;20756;-67
2021/06/28 11:27:26;;;;;;;4.60;4.30;;;;;;;32.14;26.42;101097.88;5037266;28;20472;-67